Time;durP1;ratioP1;P1;durP2;ratioP2;P2;SDS_P1;SDS_P2;PMS_P1;PMS_P2;Temp;Humidity;BMP_temperature;BMP_pressure;BME280_temperature;BME280_humidity;BME280_pressure;Samples;Min_cycle;Max_cycle;Signal;HPM_P1;HPM_P2
2023/04/14 00:01:44;;;;;;;2.47;1.90;;;;;;;;;;4982374;28;20220;-70
2023/04/14 00:04:10;;;;;;;3.10;1.80;;;;;;;;;;4977616;28;20560;-69
2023/04/14 00:06:38;;;;;;;3.13;2.03;;;;;;;;;;4979290;28;20236;-68
2023/04/14 00:09:05;;;;;;;4.27;2.17;;;;;;;;;;4975639;28;20954;-68
2023/04/14 00:11:31;;;;;;;3.67;2.17;;;;;;;;;;4980675;28;20802;-69
2023/04/14 00:14:00;;;;;;;2.60;2.03;;;;;;;;;;4979087;28;20218;-69
2023/04/14 00:16:27;;;;;;;3.57;2.10;;;;;;;;;;4976425;28;20239;-69
2023/04/14 00:18:53;;;;;;;2.20;1.53;;;;;;;;;;4976165;28;20672;-69
2023/04/14 00:21:19;;;;;;;2.43;1.80;;;;;;;;;;4965749;28;20196;-69
2023/04/14 00:23:46;;;;;;;2.93;1.90;;;;;;;;;;4975139;28;21129;-69
2023/04/14 00:26:13;;;;;;;5.17;2.37;;;;;;;;;;4977324;28;20616;-69
2023/04/14 00:28:43;;;;;;;3.10;1.83;;;;;;;;;;4981309;28;20314;-69
2023/04/14 00:31:10;;;;;;;2.83;2.23;;;;;;;;;;4979982;28;20624;-69
2023/04/14 00:33:36;;;;;;;3.50;2.10;;;;;;;;;;4975507;28;20221;-69
2023/04/14 00:36:03;;;;;;;3.30;1.87;;;;;;;;;;4964511;28;20577;-69
2023/04/14 00:38:30;;;;;;;2.90;1.90;;;;;;;;;;4976571;28;20288;-69
2023/04/14 00:40:56;;;;;;;3.30;1.87;;;;;;;;;;4979209;28;20679;-68
2023/04/14 00:43:24;;;;;;;5.40;2.10;;;;;;;;;;4978590;28;20213;-69
2023/04/14 00:45:52;;;;;;;2.97;2.00;;;;;;;;;;4959724;28;20205;-69
2023/04/14 00:48:18;;;;;;;6.27;2.27;;;;;;;;;;4979717;28;20313;-69
2023/04/14 00:50:45;;;;;;;2.53;2.13;;;;;;;;;;4970920;28;20197;-69
2023/04/14 00:53:12;;;;;;;2.63;2.23;;;;;;;;;;4980238;28;20205;-69
2023/04/14 00:55:39;;;;;;;6.00;1.87;;;;;;;;;;4973146;28;20680;-68
2023/04/14 00:58:05;;;;;;;5.13;2.27;;;;;;;;;;4979067;28;20365;-68
2023/04/14 01:00:33;;;;;;;8.23;2.30;;;;;;;;;;4958758;28;20232;-69
2023/04/14 01:03:00;;;;;;;5.10;2.13;;;;;;;;;;4975840;28;20324;-69
2023/04/14 01:05:26;;;;;;;3.10;2.10;;;;;;;;;;4969994;28;20209;-68
2023/04/14 01:07:53;;;;;;;2.70;1.90;;;;;;;;;;4971141;28;20350;-69
2023/04/14 01:10:19;;;;;;;2.50;1.90;;;;;;;;;;4977161;28;20575;-68
2023/04/14 01:12:57;;;;;;;2.53;1.97;;;;;;;;;;4958926;28;20215;-68
2023/04/14 01:15:30;;;;;;;4.00;2.30;;;;;;;;;;4967551;28;20775;-70
2023/04/14 01:18:02;;;;;;;3.13;2.30;;;;;;;;;;4954969;28;20233;-68
2023/04/14 01:20:32;;;;;;;4.13;2.00;;;;;;;;;;4974177;28;20205;-70
2023/04/14 01:23:04;;;;;;;3.13;2.10;;;;;;;;;;4975233;28;20267;-69
2023/04/14 01:25:45;;;;;;;3.30;2.00;;;;;;;;;;4956638;28;20216;-69
2023/04/14 01:28:20;;;;;;;4.23;2.10;;;;;;;;;;4957257;28;20233;-68
2023/04/14 01:30:51;;;;;;;5.67;2.27;;;;;;;;;;4977894;28;20719;-69
2023/04/14 01:33:20;;;;;;;3.17;2.23;;;;;;;;;;4978706;28;20331;-69
2023/04/14 01:35:50;;;;;;;2.63;2.30;;;;;;;;;;4960663;28;20310;-68
2023/04/14 01:38:21;;;;;;;3.40;2.10;;;;;;;;;;4975999;28;20244;-69
2023/04/14 01:40:50;;;;;;;2.83;1.87;;;;;;;;;;4967898;28;20217;-68
2023/04/14 01:43:17;;;;;;;2.50;1.60;;;;;;;;;;4954749;28;20198;-68
2023/04/14 01:45:48;;;;;;;3.43;2.40;;;;;;;;;;4977110;28;20541;-68
2023/04/14 01:48:15;;;;;;;3.57;2.33;;;;;;;;;;4978020;28;20573;-69
2023/04/14 01:50:43;;;;;;;2.63;2.10;;;;;;;;;;4971098;28;20219;-68
2023/04/14 01:53:11;;;;;;;2.93;1.87;;;;;;;;;;4960437;28;20260;-69
2023/04/14 01:55:38;;;;;;;3.23;2.20;;;;;;;;;;4960073;28;20656;-69
2023/04/14 01:58:06;;;;;;;4.30;2.50;;;;;;;;;;4976981;28;20230;-68
2023/04/14 02:00:34;;;;;;;4.47;1.90;;;;;;;;;;4959565;28;20216;-70
2023/04/14 02:03:02;;;;;;;3.70;2.00;;;;;;;;;;4976217;28;20292;-71
2023/04/14 02:05:31;;;;;;;2.63;2.20;;;;;;;;;;4974056;28;20275;-71
2023/04/14 02:07:59;;;;;;;3.30;2.23;;;;;;;;;;4961121;28;20627;-70
2023/04/14 02:10:27;;;;;;;5.23;2.40;;;;;;;;;;4976237;28;20573;-71
2023/04/14 02:12:56;;;;;;;3.30;2.03;;;;;;;;;;4959694;28;20316;-68
2023/04/14 02:15:24;;;;;;;3.00;2.13;;;;;;;;;;4974380;28;20300;-67
2023/04/14 02:17:51;;;;;;;4.07;2.43;;;;;;;;;;4977471;28;20233;-69
2023/04/14 02:20:19;;;;;;;4.53;2.23;;;;;;;;;;4960444;28;20304;-71
2023/04/14 02:22:46;;;;;;;3.30;2.50;;;;;;;;;;4970110;28;20206;-71
2023/04/14 02:25:15;;;;;;;4.73;2.60;;;;;;;;;;4976283;28;20232;-70
2023/04/14 02:27:46;;;;;;;2.70;1.83;;;;;;;;;;4974690;28;20256;-71
2023/04/14 02:30:14;;;;;;;3.90;2.13;;;;;;;;;;4961596;28;20201;-69
2023/04/14 02:32:44;;;;;;;4.20;2.10;;;;;;;;;;4970837;28;20212;-69
2023/04/14 02:35:15;;;;;;;3.50;2.00;;;;;;;;;;4967754;28;20209;-68
2023/04/14 02:37:43;;;;;;;4.77;2.27;;;;;;;;;;4961293;28;20257;-69
2023/04/14 02:40:12;;;;;;;3.50;2.30;;;;;;;;;;4972815;28;20670;-69
2023/04/14 02:42:40;;;;;;;4.70;2.40;;;;;;;;;;4971919;28;20224;-69
2023/04/14 02:45:11;;;;;;;3.50;2.27;;;;;;;;;;4976682;28;20225;-69
2023/04/14 02:47:47;;;;;;;2.50;2.10;;;;;;;;;;4960244;28;20225;-69
2023/04/14 02:50:15;;;;;;;5.23;2.17;;;;;;;;;;4958080;28;20193;-71
2023/04/14 02:52:50;;;;;;;3.80;2.80;;;;;;;;;;4973556;28;20231;-71
2023/04/14 02:55:19;;;;;;;5.57;2.93;;;;;;;;;;4960200;28;20678;-69
2023/04/14 02:57:48;;;;;;;4.67;2.50;;;;;;;;;;4957848;28;20246;-69
2023/04/14 03:00:15;;;;;;;2.90;1.90;;;;;;;;;;4975469;28;20209;-69
2023/04/14 03:02:48;;;;;;;7.00;2.53;;;;;;;;;;4956290;28;20213;-68
2023/04/14 03:05:14;;;;;;;3.50;2.17;;;;;;;;;;4958459;28;20208;-68
2023/04/14 03:07:52;;;;;;;3.43;2.10;;;;;;;;;;4975897;28;20229;-69
2023/04/14 03:10:21;;;;;;;3.03;2.27;;;;;;;;;;4974801;28;20209;-69
2023/04/14 03:12:50;;;;;;;4.03;2.27;;;;;;;;;;4959022;28;20698;-70
2023/04/14 03:15:18;;;;;;;3.43;2.43;;;;;;;;;;4976598;28;20295;-69
2023/04/14 03:17:46;;;;;;;5.67;2.70;;;;;;;;;;4957923;28;20236;-68
2023/04/14 03:20:14;;;;;;;4.67;2.47;;;;;;;;;;4974227;28;20489;-68
2023/04/14 03:22:42;;;;;;;5.33;2.57;;;;;;;;;;4956878;28;20460;-69
2023/04/14 03:25:11;;;;;;;4.03;2.50;;;;;;;;;;4960803;28;20201;-68
2023/04/14 03:27:39;;;;;;;6.20;2.60;;;;;;;;;;4975328;28;20259;-69
2023/04/14 03:30:10;;;;;;;8.90;3.57;;;;;;;;;;4973839;28;20240;-69
2023/04/14 03:32:41;;;;;;;23.80;11.27;;;;;;;;;;4956792;28;20233;-69
2023/04/14 03:35:11;;;;;;;15.10;8.37;;;;;;;;;;4947730;28;20680;-70
2023/04/14 03:37:40;;;;;;;12.53;6.53;;;;;;;;;;4974720;28;20229;-69
2023/04/14 03:40:08;;;;;;;24.97;11.20;;;;;;;;;;4957404;28;20206;-70
2023/04/14 03:42:35;;;;;;;14.80;6.53;;;;;;;;;;4957893;28;20311;-69
2023/04/14 03:45:03;;;;;;;12.90;6.30;;;;;;;;;;4971514;28;20209;-70
2023/04/14 03:47:35;;;;;;;13.00;5.27;;;;;;;;;;4971596;28;20308;-69
2023/04/14 03:50:03;;;;;;;11.57;5.33;;;;;;;;;;4972117;28;20324;-69
2023/04/14 03:52:34;;;;;;;7.17;4.30;;;;;;;;;;4963706;28;20698;-68
2023/04/14 03:55:04;;;;;;;6.20;3.20;;;;;;;;;;4960515;28;20201;-70
2023/04/14 03:57:34;;;;;;;3.43;2.30;;;;;;;;;;4957708;28;20237;-69
2023/04/14 04:00:03;;;;;;;4.83;1.93;;;;;;;;;;4973032;28;20453;-68
2023/04/14 04:02:41;;;;;;;5.77;2.37;;;;;;;;;;4976770;28;20235;-69
2023/04/14 04:05:09;;;;;;;4.37;2.67;;;;;;;;;;4952976;28;20209;-70
2023/04/14 04:07:36;;;;;;;6.93;3.03;;;;;;;;;;4955300;28;20236;-69
2023/04/14 04:10:03;;;;;;;4.33;2.90;;;;;;;;;;4974184;28;20221;-70
2023/04/14 04:12:30;;;;;;;3.83;2.30;;;;;;;;;;4975965;28;20212;-69
2023/04/14 04:14:57;;;;;;;5.20;2.67;;;;;;;;;;4963224;28;20276;-68
2023/04/14 04:17:24;;;;;;;6.57;2.40;;;;;;;;;;4974165;28;20561;-69
2023/04/14 04:19:53;;;;;;;5.63;2.40;;;;;;;;;;4956911;28;20241;-69
2023/04/14 04:22:21;;;;;;;3.47;2.10;;;;;;;;;;4965411;28;20204;-68
2023/04/14 04:24:48;;;;;;;4.83;2.47;;;;;;;;;;4962542;28;20296;-70
2023/04/14 04:27:21;;;;;;;3.30;2.47;;;;;;;;;;4978035;28;20222;-70
2023/04/14 04:29:48;;;;;;;2.90;2.47;;;;;;;;;;4958683;28;20275;-69
2023/04/14 04:32:15;;;;;;;4.97;2.97;;;;;;;;;;4961174;28;20279;-70
2023/04/14 04:34:42;;;;;;;4.87;2.70;;;;;;;;;;4975148;28;20861;-68
2023/04/14 04:37:09;;;;;;;7.47;3.90;;;;;;;;;;4980179;28;20727;-69
2023/04/14 04:39:36;;;;;;;6.33;3.20;;;;;;;;;;4963076;28;20201;-69
2023/04/14 04:42:03;;;;;;;3.40;2.67;;;;;;;;;;4978324;28;20540;-69
2023/04/14 04:44:30;;;;;;;6.20;2.57;;;;;;;;;;4961668;28;20198;-69
2023/04/14 04:46:57;;;;;;;7.73;2.50;;;;;;;;;;4974994;28;20855;-69
2023/04/14 04:49:26;;;;;;;3.57;2.23;;;;;;;;;;4975728;28;20261;-69
2023/04/14 04:51:55;;;;;;;3.17;2.30;;;;;;;;;;4959750;28;20272;-69
2023/04/14 04:54:23;;;;;;;6.73;2.87;;;;;;;;;;4955683;28;20216;-69
2023/04/14 04:56:49;;;;;;;3.03;2.03;;;;;;;;;;4978469;28;20731;-70
2023/04/14 04:59:15;;;;;;;4.37;2.37;;;;;;;;;;4980303;28;20199;-69
2023/04/14 05:01:41;;;;;;;3.00;2.30;;;;;;;;;;4979788;28;20206;-68
2023/04/14 05:04:07;;;;;;;4.30;2.53;;;;;;;;;;4976378;28;23731;-69
2023/04/14 05:06:34;;;;;;;4.37;2.70;;;;;;;;;;4979328;28;20734;-69
2023/04/14 05:09:01;;;;;;;3.80;2.10;;;;;;;;;;4976650;28;20718;-69
2023/04/14 05:11:28;;;;;;;5.03;2.90;;;;;;;;;;4980646;28;20201;-69
2023/04/14 05:13:55;;;;;;;2.23;2.03;;;;;;;;;;4974813;28;20259;-69
2023/04/14 05:19:02;;;;;;;3.83;2.60;;;;;;;;;;4953869;28;20309;-70
2023/04/14 05:21:28;;;;;;;3.60;2.47;;;;;;;;;;4962421;28;20202;-70
2023/04/14 05:23:55;;;;;;;4.63;2.50;;;;;;;;;;4959396;28;20213;-70
2023/04/14 05:26:21;;;;;;;3.53;2.40;;;;;;;;;;4961756;28;20274;-70
2023/04/14 05:28:49;;;;;;;4.57;2.80;;;;;;;;;;4959293;28;20241;-69
2023/04/14 05:31:15;;;;;;;7.10;2.20;;;;;;;;;;4955176;28;20216;-71
2023/04/14 05:33:41;;;;;;;3.63;2.43;;;;;;;;;;4941478;28;20612;-70
2023/04/14 05:36:08;;;;;;;3.37;2.47;;;;;;;;;;4948817;28;20218;-70
2023/04/14 05:38:36;;;;;;;4.63;2.33;;;;;;;;;;4952242;28;21784;-70
2023/04/14 05:41:03;;;;;;;3.30;2.30;;;;;;;;;;4955020;28;20202;-70
2023/04/14 05:43:29;;;;;;;2.50;2.23;;;;;;;;;;4959899;28;20202;-70
2023/04/14 05:45:57;;;;;;;3.40;2.50;;;;;;;;;;4960640;28;20198;-70
2023/04/14 05:48:26;;;;;;;3.23;2.10;;;;;;;;;;4957898;28;20237;-70
2023/04/14 05:50:52;;;;;;;5.20;2.23;;;;;;;;;;4951023;28;20232;-70
2023/04/14 05:53:18;;;;;;;2.73;2.03;;;;;;;;;;4956880;28;20209;-70
2023/04/14 05:56:04;;;;;;;4.17;2.23;;;;;;;;;;4954791;28;20573;-70
2023/04/14 05:58:52;;;;;;;3.80;2.83;;;;;;;;;;4955134;28;20597;-70
2023/04/14 06:01:42;;;;;;;2.93;1.93;;;;;;;;;;4949934;28;20291;-71
2023/04/14 06:04:26;;;;;;;3.93;2.50;;;;;;;;;;4951550;28;20596;-71
2023/04/14 06:07:11;;;;;;;5.63;2.47;;;;;;;;;;4957479;28;20233;-71
2023/04/14 06:09:56;;;;;;;3.27;2.40;;;;;;;;;;4956270;28;20233;-71
2023/04/14 06:12:41;;;;;;;2.93;2.27;;;;;;;;;;4957453;28;20209;-70
2023/04/14 06:15:28;;;;;;;2.20;1.90;;;;;;;;;;4944365;28;20791;-72
2023/04/14 06:18:14;;;;;;;3.40;2.57;;;;;;;;;;4954177;28;20619;-70
2023/04/14 06:21:18;;;;;;;6.03;2.50;;;;;;;;;;4952884;28;20228;-70
2023/04/14 06:24:22;;;;;;;3.43;2.10;;;;;;;;;;4958142;28;20217;-70
2023/04/14 06:27:26;;;;;;;3.97;2.70;;;;;;;;;;4956779;28;20240;-70
2023/04/14 06:30:31;;;;;;;3.67;2.50;;;;;;;;;;4957259;28;20255;-70
2023/04/14 06:33:35;;;;;;;5.60;2.77;;;;;;;;;;4953236;28;20288;-70
2023/04/14 06:36:40;;;;;;;4.10;2.20;;;;;;;;;;4950901;28;20212;-70
2023/04/14 06:39:44;;;;;;;5.77;3.03;;;;;;;;;;4959789;28;20681;-70
2023/04/14 06:42:49;;;;;;;7.87;2.90;;;;;;;;;;4954778;28;20361;-70
2023/04/14 06:45:52;;;;;;;3.77;3.07;;;;;;;;;;4961222;28;20217;-70
2023/04/14 06:48:56;;;;;;;4.27;3.07;;;;;;;;;;4957543;28;20236;-70
2023/04/14 06:52:00;;;;;;;5.13;2.97;;;;;;;;;;4952245;28;20893;-70
2023/04/14 06:55:04;;;;;;;4.17;3.07;;;;;;;;;;4953780;28;21743;-70
2023/04/14 06:58:08;;;;;;;6.27;3.57;;;;;;;;;;4959699;28;20311;-70
2023/04/14 07:01:11;;;;;;;7.13;3.53;;;;;;;;;;4948734;28;20749;-71
2023/04/14 07:04:18;;;;;;;3.63;2.70;;;;;;;;;;4952300;28;20684;-70
2023/04/14 07:07:23;;;;;;;4.37;2.73;;;;;;;;;;4953347;28;20738;-70
2023/04/14 07:10:27;;;;;;;5.63;3.33;;;;;;;;;;4951942;28;20233;-69
2023/04/14 07:13:31;;;;;;;5.80;3.60;;;;;;;;;;4954653;28;20213;-70
2023/04/14 07:16:35;;;;;;;5.60;3.30;;;;;;;;;;4955207;28;20365;-70
2023/04/14 07:19:38;;;;;;;4.33;3.20;;;;;;;;;;4954218;28;20228;-70
2023/04/14 07:22:42;;;;;;;8.37;3.90;;;;;;;;;;4954159;28;20415;-70
2023/04/14 07:25:46;;;;;;;6.13;3.83;;;;;;;;;;4954399;28;20256;-70
2023/04/14 07:28:50;;;;;;;8.10;4.23;;;;;;;;;;4957787;28;20240;-70
2023/04/14 07:31:54;;;;;;;6.37;4.10;;;;;;;;;;4954567;28;20220;-70
2023/04/14 07:35:05;;;;;;;8.80;3.70;;;;;;;;;;4948193;28;20374;-70
2023/04/14 07:38:24;;;;;;;5.07;3.90;;;;;;;;;;4961543;28;20245;-71
2023/04/14 07:41:41;;;;;;;6.07;4.10;;;;;;;;;;4957274;28;20616;-70
2023/04/14 07:44:57;;;;;;;4.83;3.50;;;;;;;;;;4959274;28;20819;-70
2023/04/14 07:48:13;;;;;;;6.17;4.93;;;;;;;;;;4951500;28;20229;-70
2023/04/14 07:51:29;;;;;;;6.57;3.33;;;;;;;;;;4957406;28;20237;-70
2023/04/14 07:54:45;;;;;;;6.67;3.63;;;;;;;;;;4958478;28;20241;-70
2023/04/14 07:58:01;;;;;;;5.87;4.10;;;;;;;;;;4956267;28;20965;-70
2023/04/14 08:01:18;;;;;;;6.57;3.90;;;;;;;;;;4955990;28;20216;-70
2023/04/14 08:04:36;;;;;;;7.17;4.17;;;;;;;;;;4958744;28;20562;-70
2023/04/14 08:07:52;;;;;;;7.50;4.20;;;;;;;;;;4957476;28;20232;-70
2023/04/14 08:11:08;;;;;;;7.67;4.30;;;;;;;;;;4958730;28;20646;-70
2023/04/14 08:14:26;;;;;;;7.63;4.60;;;;;;;;;;4962770;28;20213;-70
2023/04/14 08:17:43;;;;;;;8.47;5.07;;;;;;;;;;4959140;28;20318;-70
2023/04/14 08:20:59;;;;;;;11.43;5.17;;;;;;;;;;4958475;28;20224;-70
2023/04/14 08:24:15;;;;;;;7.00;5.00;;;;;;;;;;4963890;28;20759;-71
2023/04/14 08:27:31;;;;;;;7.90;5.17;;;;;;;;;;4959537;28;20233;-71
2023/04/14 08:30:48;;;;;;;8.07;5.10;;;;;;;;;;4955839;28;20260;-71
2023/04/14 08:34:04;;;;;;;8.17;5.27;;;;;;;;;;4963043;28;20244;-71
2023/04/14 08:37:22;;;;;;;6.63;5.40;;;;;;;;;;4955534;28;20241;-71
2023/04/14 08:40:39;;;;;;;7.40;5.90;;;;;;;;;;4962502;28;20213;-71
2023/04/14 08:43:56;;;;;;;7.53;5.27;;;;;;;;;;4963012;28;20212;-71
2023/04/14 08:47:12;;;;;;;8.70;5.57;;;;;;;;;;4955210;28;20268;-71
2023/04/14 08:50:28;;;;;;;9.80;6.50;;;;;;;;;;4957468;28;20900;-71
2023/04/14 08:53:46;;;;;;;9.60;6.23;;;;;;;;;;4960746;28;20217;-71
2023/04/14 08:57:02;;;;;;;7.77;6.07;;;;;;;;;;4951670;28;20225;-71
2023/04/14 09:00:18;;;;;;;6.77;5.30;;;;;;;;;;4958028;28;20325;-71
2023/04/14 09:03:35;;;;;;;8.73;5.87;;;;;;;;;;4953525;28;20357;-71
2023/04/14 09:06:52;;;;;;;8.07;5.67;;;;;;;;;;4952941;28;20707;-72
2023/04/14 09:10:09;;;;;;;12.47;8.57;;;;;;;;;;4954871;28;20307;-72
2023/04/14 09:13:27;;;;;;;11.07;8.53;;;;;;;;;;4959908;28;20292;-71
2023/04/14 09:16:43;;;;;;;10.77;7.53;;;;;;;;;;4948123;28;20270;-71
2023/04/14 09:19:59;;;;;;;9.07;7.20;;;;;;;;;;4932009;28;20573;-72
2023/04/14 09:23:16;;;;;;;8.23;6.03;;;;;;;;;;4931882;28;20221;-72
2023/04/14 09:26:34;;;;;;;9.43;7.00;;;;;;;;;;4938487;29;20213;-71
2023/04/14 09:29:51;;;;;;;8.07;7.20;;;;;;;;;;4941553;29;20217;-71
2023/04/14 09:33:08;;;;;;;9.83;6.87;;;;;;;;;;4940919;29;20704;-71
2023/04/14 09:36:25;;;;;;;9.13;7.17;;;;;;;;;;4929655;28;20226;-72
2023/04/14 09:39:42;;;;;;;8.30;6.80;;;;;;;;;;4942579;29;20225;-72
2023/04/14 09:42:59;;;;;;;8.87;7.07;;;;;;;;;;4942199;29;20214;-72
2023/04/14 09:46:16;;;;;;;11.03;6.33;;;;;;;;;;4928328;29;20237;-72
2023/04/14 09:49:33;;;;;;;9.50;6.87;;;;;;;;;;4938610;28;20221;-72
2023/04/14 09:52:50;;;;;;;8.33;6.10;;;;;;;;;;4929079;29;20210;-72
2023/04/14 09:56:06;;;;;;;8.60;7.10;;;;;;;;;;4938585;28;20330;-72
2023/04/14 09:59:23;;;;;;;8.63;6.77;;;;;;;;;;4929890;28;20218;-72
2023/04/14 10:02:40;;;;;;;8.60;6.23;;;;;;;;;;4934940;29;20460;-72
2023/04/14 10:05:56;;;;;;;10.33;6.00;;;;;;;;;;4928759;28;20276;-72
2023/04/14 10:09:13;;;;;;;8.50;5.83;;;;;;;;;;4921821;28;20234;-72
2023/04/14 10:12:30;;;;;;;6.77;5.60;;;;;;;;;;4927867;28;20253;-72
2023/04/14 10:15:47;;;;;;;9.60;5.57;;;;;;;;;;4926816;28;20957;-72
2023/04/14 10:19:04;;;;;;;8.90;6.43;;;;;;;;;;4953339;28;20244;-72
2023/04/14 10:22:20;;;;;;;8.83;6.40;;;;;;;;;;4952229;28;20209;-72
2023/04/14 10:25:37;;;;;;;8.03;6.10;;;;;;;;;;4950752;28;20329;-72
2023/04/14 10:28:54;;;;;;;10.40;6.50;;;;;;;;;;4955850;28;20841;-72
2023/04/14 10:32:11;;;;;;;7.77;5.80;;;;;;;;;;4953131;28;20451;-72
2023/04/14 10:35:28;;;;;;;8.17;5.77;;;;;;;;;;4939095;28;20220;-72
2023/04/14 10:38:44;;;;;;;9.00;6.53;;;;;;;;;;4954288;28;20821;-72
2023/04/14 10:42:01;;;;;;;8.27;6.40;;;;;;;;;;4956573;28;20241;-72
2023/04/14 10:45:17;;;;;;;10.03;6.50;;;;;;;;;;4955132;28;20816;-72
2023/04/14 10:48:34;;;;;;;8.57;6.30;;;;;;;;;;4957227;28;20233;-72
2023/04/14 10:51:51;;;;;;;9.40;6.70;;;;;;;;;;4958871;28;20371;-72
2023/04/14 10:55:08;;;;;;;8.80;6.50;;;;;;;;;;4953713;28;20452;-72
2023/04/14 10:58:24;;;;;;;10.17;7.13;;;;;;;;;;4954860;28;20711;-72
2023/04/14 11:01:42;;;;;;;10.43;6.87;;;;;;;;;;4955364;28;20695;-72
2023/04/14 11:04:59;;;;;;;12.47;8.00;;;;;;;;;;4950134;28;20228;-72
2023/04/14 11:08:16;;;;;;;9.67;7.20;;;;;;;;;;4956064;28;20237;-72
2023/04/14 11:11:32;;;;;;;10.97;7.13;;;;;;;;;;4947268;28;20863;-72
2023/04/14 11:14:48;;;;;;;13.47;7.73;;;;;;;;;;4936514;28;20274;-72
2023/04/14 11:18:04;;;;;;;10.13;7.50;;;;;;;;;;4953470;28;20289;-72
2023/04/14 11:21:20;;;;;;;10.03;7.03;;;;;;;;;;4956123;28;20702;-72
2023/04/14 11:24:37;;;;;;;10.40;7.27;;;;;;;;;;4959998;28;20714;-72
2023/04/14 11:27:53;;;;;;;12.23;7.67;;;;;;;;;;4959257;28;20242;-72
2023/04/14 11:31:10;;;;;;;10.20;6.87;;;;;;;;;;4955416;28;20538;-72
2023/04/14 11:34:27;;;;;;;9.27;7.20;;;;;;;;;;4949111;28;20217;-72
